Weather at Beşaslan Border Helipad

Public forecast

Using degrees Celsius for public forecast. Weather courtesy of forecast.io.

Closest aviation weather report (METAR) to Beşaslan Border Helipad

Report is more than 2 hours old.

Closest report is Hatay Airport, 13.3 nm (24.6 km) NW.

2024/06/24 20:50 (retrieved 6 hours ago)

LTDA 242050Z 21016KT CAVOK 27/23 Q1005 NOSIG

Closest aviation forecast (TAF) to Beşaslan Border Helipad

Forecast is more than 12 hours old.

Closest forecast is Aleppo International Airport, 36.7 nm (67.9 km) E.

2024/06/24 06:00 (retrieved 20 hours ago)

TAF OSAP 240500Z 2406/2506 33010KT 9999 SCT030 TEMPO 2410/2415 32018KT 4000 SHRA SCT015CB SCT025